createdAt,value
2023-04-26T04:16:48.012Z,99683.59
2023-04-26T04:20:51.330Z,99683.59
2023-04-26T04:24:54.567Z,99690.03
2023-04-26T04:29:00.734Z,99691.94
2023-04-26T04:33:05.721Z,99698.38
2023-04-26T04:37:14.313Z,99694.75
2023-04-26T04:41:17.346Z,99703.03
2023-04-26T04:45:20.723Z,99702.94
2023-04-26T04:49:25.041Z,99702.66
2023-04-26T04:53:28.620Z,99694.50
2023-04-26T04:57:34.401Z,99706.88
2023-04-26T05:01:38.826Z,99698.75
2023-04-26T05:05:41.866Z,99709.19
2023-04-26T05:09:45.843Z,99709.75
2023-04-26T05:13:52.289Z,99723.59
2023-04-26T05:17:56.766Z,99724.63
2023-04-26T05:21:59.798Z,99728.28
2023-04-26T05:26:06.405Z,99741.81
2023-04-26T05:30:12.710Z,99749.72
2023-04-26T05:34:16.607Z,99753.34
2023-04-26T05:38:22.337Z,99759.31
2023-04-26T05:42:25.672Z,99749.59
2023-04-26T05:46:28.488Z,99763.63
2023-04-26T05:50:31.904Z,99764.09
2023-04-26T05:54:35.135Z,99770.22
2023-04-26T05:58:38.389Z,99777.34
2023-04-26T06:02:41.641Z,99780.47
2023-04-26T06:06:51.577Z,99782.44
2023-04-26T06:10:57.242Z,99790.22
2023-04-26T06:15:00.722Z,99796.28
2023-04-26T06:19:03.848Z,99794.31
2023-04-26T06:23:07.751Z,99784.88
2023-04-26T06:27:10.582Z,99785.81
2023-04-26T06:31:15.943Z,99785.66
2023-04-26T06:35:19.133Z,99792.09
2023-04-26T06:39:22.471Z,99789.31
2023-04-26T06:43:25.525Z,99800.34
2023-04-26T06:47:29.984Z,99799.31
2023-04-26T06:51:32.942Z,99801.44
2023-04-26T06:55:36.212Z,99800.03
2023-04-26T06:59:39.203Z,99790.66
2023-04-26T07:03:43.066Z,99789.22
2023-04-26T07:07:47.907Z,99796.06
2023-04-26T07:11:51.095Z,99798.09
2023-04-26T07:15:54.062Z,99801.34
2023-04-26T07:20:02.813Z,99797.66
2023-04-26T07:24:09.302Z,99808.09
2023-04-26T07:28:12.845Z,99822.22
2023-04-26T07:32:17.622Z,99824.00
2023-04-26T07:36:22.440Z,99822.28
2023-04-26T07:40:26.595Z,99828.63
2023-04-26T07:44:29.585Z,99815.94
2023-04-26T07:48:32.483Z,99824.72
2023-04-26T07:52:35.718Z,99835.53
2023-04-26T07:56:38.627Z,99853.22
2023-04-26T08:00:42.143Z,99843.72
2023-04-26T08:04:54.565Z,99854.00
2023-04-26T08:09:19.242Z,99861.66
2023-04-26T08:13:22.779Z,99859.78
2023-04-26T08:17:26.234Z,99859.62
2023-04-26T08:21:30.249Z,99866.44
2023-04-26T08:25:35.515Z,99874.50
2023-04-26T08:29:39.763Z,99869.59
2023-04-26T08:33:43.138Z,99874.69
2023-04-26T08:37:46.301Z,99883.91
2023-04-26T08:41:55.639Z,99878.19
2023-04-26T08:46:02.462Z,99886.16
2023-04-26T08:50:08.608Z,99874.53
2023-04-26T08:54:12.869Z,99885.94
2023-04-26T08:58:19.700Z,99890.62
2023-04-26T09:02:25.913Z,99885.75
2023-04-26T09:06:29.243Z,99894.25
2023-04-26T09:10:34.219Z,99884.31
2023-04-26T09:14:40.260Z,99889.22
2023-04-26T09:18:57.974Z,99898.00
2023-04-26T09:23:07.124Z,99892.31
2023-04-26T09:27:13.165Z,99911.81
2023-04-26T09:31:50.136Z,99905.03
2023-04-26T09:35:54.631Z,99899.94
2023-04-26T09:39:57.792Z,99881.72
2023-04-26T09:44:09.159Z,99894.81
2023-04-26T09:48:17.852Z,99886.16
2023-04-26T09:52:44.192Z,99889.31
2023-04-26T09:57:02.004Z,99885.56
2023-04-26T10:01:05.801Z,99889.44
2023-04-26T10:05:13.053Z,99885.78
2023-04-26T10:09:20.050Z,99888.44
2023-04-26T10:13:32.683Z,99876.56
2023-04-26T10:17:37.076Z,99883.00
2023-04-26T10:21:45.347Z,99893.66
2023-04-26T10:25:52.588Z,99878.41
2023-04-26T10:30:25.227Z,99893.97
2023-04-26T10:34:46.077Z,99890.69
2023-04-26T10:39:29.071Z,99893.44
2023-04-26T10:44:00.270Z,99891.41
2023-04-26T10:48:33.128Z,99900.53
2023-04-26T10:53:04.968Z,99892.38
2023-04-26T10:57:07.908Z,99890.19
2023-04-26T11:01:22.772Z,99896.41
2023-04-26T11:05:38.757Z,99890.91
2023-04-26T11:09:49.371Z,99889.59
2023-04-26T11:13:52.444Z,99888.03
2023-04-26T11:17:56.331Z,99889.47
2023-04-26T11:22:01.392Z,99878.59
2023-04-26T11:26:06.611Z,99880.50
2023-04-26T11:30:10.018Z,99889.69
2023-04-26T11:34:16.754Z,99889.72
2023-04-26T11:38:30.483Z,99902.69
2023-04-26T11:42:48.198Z,99896.69
2023-04-26T11:46:52.336Z,99893.53
2023-04-26T11:50:59.362Z,99901.47
2023-04-26T11:55:10.502Z,99894.53
2023-04-26T11:59:23.726Z,99895.97
2023-04-26T12:03:38.227Z,99901.63
2023-04-26T12:07:47.265Z,99900.88
2023-04-26T12:12:26.150Z,99898.34
2023-04-26T12:16:47.171Z,99890.19
2023-04-26T12:20:56.242Z,99888.31
2023-04-26T12:25:06.635Z,99891.06
2023-04-26T12:29:09.674Z,99891.66
2023-04-26T12:33:17.972Z,99902.56
2023-04-26T12:37:20.909Z,99913.50
2023-04-26T12:41:24.780Z,99903.72
2023-04-26T12:45:27.957Z,99907.94
2023-04-26T12:49:31.244Z,99901.66
2023-04-26T12:53:34.102Z,99888.81
2023-04-26T12:57:38.208Z,99894.78
2023-04-26T13:01:41.376Z,99894.69
2023-04-26T13:05:44.598Z,99907.97
2023-04-26T13:09:47.451Z,99910.13
2023-04-26T13:13:50.490Z,99913.72
2023-04-26T13:17:54.295Z,99914.66
2023-04-26T13:21:57.467Z,99909.06
2023-04-26T13:26:00.202Z,99910.06
2023-04-26T13:30:03.699Z,99926.28
2023-04-26T13:34:07.073Z,99923.13
2023-04-26T13:38:10.110Z,99935.44
2023-04-26T13:42:14.369Z,99931.28
2023-04-26T13:46:18.043Z,99931.84
2023-04-26T13:50:20.741Z,99935.25
2023-04-26T13:54:25.979Z,99949.41
2023-04-26T13:58:28.645Z,99962.94
2023-04-26T14:02:31.866Z,99951.31
2023-04-26T14:06:35.191Z,99952.00
2023-04-26T14:10:37.828Z,99966.78
2023-04-26T14:14:40.998Z,99957.16
2023-04-26T14:18:45.417Z,99954.03
2023-04-26T14:22:50.630Z,99954.25
2023-04-26T14:26:53.918Z,99955.37
2023-04-26T14:30:56.981Z,99958.75
2023-04-26T14:34:59.671Z,99959.34
2023-04-26T14:39:02.742Z,99961.09
2023-04-26T14:43:05.554Z,99970.84
2023-04-26T14:47:08.560Z,99968.63
2023-04-26T14:51:11.463Z,99969.66
2023-04-26T14:55:24.437Z,99972.97
2023-04-26T14:59:27.098Z,99970.28
2023-04-26T15:03:30.408Z,99978.94
2023-04-26T15:07:33.285Z,99977.06
2023-04-26T15:11:36.619Z,99982.94
2023-04-26T15:15:39.550Z,99989.12
2023-04-26T15:19:42.540Z,99988.28
2023-04-26T15:23:45.360Z,99993.66
2023-04-26T15:27:50.545Z,99991.69
2023-04-26T15:31:53.408Z,99993.31
2023-04-26T15:35:57.036Z,99995.38
2023-04-26T15:39:59.737Z,99992.81
2023-04-26T15:44:02.741Z,99996.38
2023-04-26T15:48:06.142Z,100007.09
2023-04-26T15:52:09.396Z,100003.13
2023-04-26T15:56:16.355Z,100005.84
2023-04-26T16:00:20.934Z,100010.59
2023-04-26T16:04:24.135Z,100006.00
